createdAt,value
2019-02-12T00:22:25.439Z,2.02
2019-02-12T00:24:56.470Z,1.98
2019-02-12T00:27:27.406Z,2.05
2019-02-12T00:29:58.305Z,2.06
2019-02-12T00:32:29.267Z,2.09
2019-02-12T00:35:00.370Z,2.11
2019-02-12T00:37:31.334Z,2.16
2019-02-12T00:40:02.220Z,2.18
2019-02-12T00:42:33.112Z,2.20
2019-02-12T00:45:05.336Z,2.20
2019-02-12T00:47:36.233Z,2.25
2019-02-12T00:50:09.960Z,2.28
2019-02-12T00:52:40.903Z,2.28
2019-02-12T00:55:11.971Z,2.27
2019-02-12T00:57:42.919Z,2.29
2019-02-12T01:00:14.934Z,2.29
2019-02-12T01:02:45.794Z,2.30
2019-02-12T01:05:16.963Z,2.30
2019-02-12T01:07:48.249Z,2.34
2019-02-12T01:10:19.200Z,2.36
2019-02-12T01:12:50.197Z,2.39
2019-02-12T01:15:21.169Z,2.42
2019-02-12T01:17:52.229Z,2.38
2019-02-12T01:20:23.162Z,2.38
2019-02-12T01:22:54.029Z,2.38
2019-02-12T01:25:24.916Z,2.38
2019-02-12T01:27:55.794Z,2.39
2019-02-12T01:30:26.843Z,2.37
2019-02-12T01:32:57.725Z,2.38
2019-02-12T01:35:28.723Z,2.41
2019-02-12T01:37:59.683Z,2.42
2019-02-12T01:40:30.574Z,2.41
2019-02-12T01:43:01.668Z,2.39
2019-02-12T01:45:32.653Z,2.39
2019-02-12T01:48:03.757Z,2.38
2019-02-12T01:50:34.638Z,2.36
2019-02-12T01:53:05.796Z,2.36
2019-02-12T01:55:36.796Z,2.36
2019-02-12T01:58:07.836Z,2.37
2019-02-12T02:00:38.865Z,2.38
2019-02-12T02:03:09.807Z,2.40
2019-02-12T02:05:40.846Z,2.39
2019-02-12T02:08:13.385Z,2.40
2019-02-12T02:10:44.476Z,2.37
2019-02-12T02:13:15.662Z,2.34
2019-02-12T02:15:46.528Z,2.30
2019-02-12T02:18:17.402Z,2.33
2019-02-12T02:20:48.279Z,2.15
2019-02-12T02:23:19.216Z,2.10
2019-02-12T02:25:50.098Z,2.10
2019-02-12T02:28:20.972Z,2.11
2019-02-12T02:30:51.928Z,2.11
2019-02-12T02:33:22.828Z,2.11
2019-02-12T02:35:53.783Z,2.09
2019-02-12T02:38:24.744Z,2.09
2019-02-12T02:40:55.634Z,2.11
2019-02-12T02:43:26.554Z,2.11
2019-02-12T02:45:57.544Z,2.13
2019-02-12T02:48:28.495Z,2.13
2019-02-12T02:50:59.464Z,2.18
2019-02-12T02:53:30.420Z,2.16
2019-02-12T02:56:01.425Z,2.12
2019-02-12T02:58:32.302Z,2.12
2019-02-12T03:01:03.503Z,2.14
2019-02-12T03:03:34.541Z,2.16
2019-02-12T03:06:05.514Z,2.18
2019-02-12T03:08:36.520Z,2.17
2019-02-12T03:11:07.536Z,2.16
2019-02-12T03:13:38.446Z,2.15
2019-02-12T03:16:09.335Z,2.11
2019-02-12T03:18:40.200Z,2.12
2019-02-12T03:21:11.113Z,2.03
2019-02-12T03:23:42.137Z,1.96
2019-02-12T03:26:13.020Z,1.93
2019-02-12T03:28:44.040Z,1.92
2019-02-12T03:31:14.998Z,1.99
2019-02-12T03:33:45.889Z,1.96
2019-02-12T03:36:16.874Z,1.98
2019-02-12T03:38:47.857Z,1.97
2019-02-12T03:41:18.802Z,1.96
2019-02-12T03:43:49.804Z,1.97
2019-02-12T03:46:20.737Z,1.94
2019-02-12T03:48:51.632Z,1.91
2019-02-12T03:51:22.638Z,1.95
2019-02-12T03:53:53.529Z,1.92
2019-02-12T03:56:24.467Z,1.93
2019-02-12T03:58:55.505Z,1.91
2019-02-12T04:01:26.490Z,1.89
2019-02-12T04:03:57.583Z,1.87
2019-02-12T04:06:28.633Z,1.88
2019-02-12T04:08:59.615Z,1.89
2019-02-12T04:11:30.501Z,1.91
2019-02-12T04:14:01.552Z,1.92
2019-02-12T04:16:32.588Z,1.93
2019-02-12T04:19:03.753Z,1.93
2019-02-12T04:21:34.619Z,1.95
2019-02-12T04:24:05.625Z,1.93
2019-02-12T04:26:36.499Z,1.93
2019-02-12T04:29:07.411Z,1.95
2019-02-12T04:31:38.369Z,1.95
2019-02-12T04:34:09.378Z,1.91
2019-02-12T04:36:40.358Z,1.90
2019-02-12T04:39:11.395Z,1.91
2019-02-12T04:41:42.347Z,1.93
2019-02-12T04:44:13.471Z,1.94
2019-02-12T04:46:44.427Z,1.95
2019-02-12T04:49:15.426Z,1.95
2019-02-12T04:51:46.464Z,1.95
2019-02-12T04:54:17.406Z,1.97
2019-02-12T04:56:48.454Z,1.99
2019-02-12T04:59:19.475Z,1.95
2019-02-12T05:01:50.774Z,1.95
2019-02-12T05:04:21.752Z,1.94
2019-02-12T05:06:52.746Z,1.95
2019-02-12T05:09:24.448Z,1.94
2019-02-12T05:11:55.331Z,1.96
2019-02-12T05:14:26.279Z,1.95
2019-02-12T05:16:57.168Z,1.98
2019-02-12T05:19:28.071Z,1.96
2019-02-12T05:21:59.098Z,1.95
2019-02-12T05:24:30.011Z,1.95
2019-02-12T05:27:00.930Z,1.96
2019-02-12T05:29:32.291Z,1.94
2019-02-12T05:32:03.219Z,1.94
2019-02-12T05:34:34.283Z,1.94
2019-02-12T05:37:05.186Z,1.93
2019-02-12T05:39:36.274Z,1.89
2019-02-12T05:42:07.140Z,1.88
2019-02-12T05:44:38.080Z,1.91
2019-02-12T05:47:09.562Z,1.90
2019-02-12T05:49:40.417Z,1.92
2019-02-12T05:52:13.172Z,1.91
2019-02-12T05:54:47.960Z,1.95
2019-02-12T05:57:23.015Z,1.93
